sensor_id;sensor_type;location;lat;lon;timestamp;P1;durP1;ratioP1;P2;durP2;ratioP2
44832;SDS011;30569;51.252;9.830;2023-02-28T00:00:04;5.03;;;2.40;;
44832;SDS011;30569;51.252;9.830;2023-02-28T00:02:35;5.67;;;2.80;;
44832;SDS011;30569;51.252;9.830;2023-02-28T00:05:01;4.27;;;2.27;;
44832;SDS011;30569;51.252;9.830;2023-02-28T00:07:28;4.27;;;2.20;;
44832;SDS011;30569;51.252;9.830;2023-02-28T00:09:54;6.00;;;2.00;;
44832;SDS011;30569;51.252;9.830;2023-02-28T00:12:20;7.23;;;2.27;;
44832;SDS011;30569;51.252;9.830;2023-02-28T00:14:45;4.63;;;2.53;;
44832;SDS011;30569;51.252;9.830;2023-02-28T00:17:11;3.30;;;1.97;;
44832;SDS011;30569;51.252;9.830;2023-02-28T00:19:36;4.93;;;2.40;;
44832;SDS011;30569;51.252;9.830;2023-02-28T00:22:02;4.03;;;2.03;;
44832;SDS011;30569;51.252;9.830;2023-02-28T00:24:28;5.37;;;2.20;;
44832;SDS011;30569;51.252;9.830;2023-02-28T00:26:53;3.87;;;2.17;;
44832;SDS011;30569;51.252;9.830;2023-02-28T00:29:19;4.07;;;2.50;;
44832;SDS011;30569;51.252;9.830;2023-02-28T00:31:45;4.30;;;2.30;;
44832;SDS011;30569;51.252;9.830;2023-02-28T00:34:10;4.23;;;2.40;;
44832;SDS011;30569;51.252;9.830;2023-02-28T00:36:36;4.40;;;2.70;;
44832;SDS011;30569;51.252;9.830;2023-02-28T00:39:01;3.87;;;2.23;;
44832;SDS011;30569;51.252;9.830;2023-02-28T00:41:27;4.00;;;2.50;;
44832;SDS011;30569;51.252;9.830;2023-02-28T00:43:53;3.93;;;2.07;;
44832;SDS011;30569;51.252;9.830;2023-02-28T00:46:19;4.77;;;2.57;;
44832;SDS011;30569;51.252;9.830;2023-02-28T00:48:44;4.40;;;2.23;;
44832;SDS011;30569;51.252;9.830;2023-02-28T00:51:10;5.70;;;2.13;;
44832;SDS011;30569;51.252;9.830;2023-02-28T00:53:35;4.00;;;2.20;;
44832;SDS011;30569;51.252;9.830;2023-02-28T00:56:01;6.60;;;2.40;;
44832;SDS011;30569;51.252;9.830;2023-02-28T00:58:27;4.40;;;2.10;;
44832;SDS011;30569;51.252;9.830;2023-02-28T01:00:53;4.27;;;2.20;;
44832;SDS011;30569;51.252;9.830;2023-02-28T01:03:20;4.07;;;2.67;;
44832;SDS011;30569;51.252;9.830;2023-02-28T01:05:46;4.77;;;2.30;;
44832;SDS011;30569;51.252;9.830;2023-02-28T01:08:12;4.03;;;2.17;;
44832;SDS011;30569;51.252;9.830;2023-02-28T01:10:39;4.80;;;2.40;;
44832;SDS011;30569;51.252;9.830;2023-02-28T01:13:05;4.20;;;2.33;;
44832;SDS011;30569;51.252;9.830;2023-02-28T01:15:31;4.90;;;2.60;;
44832;SDS011;30569;51.252;9.830;2023-02-28T01:17:57;5.37;;;2.53;;
44832;SDS011;30569;51.252;9.830;2023-02-28T01:20:23;4.57;;;2.20;;
44832;SDS011;30569;51.252;9.830;2023-02-28T01:22:49;7.60;;;2.43;;
44832;SDS011;30569;51.252;9.830;2023-02-28T01:25:14;3.50;;;2.10;;
44832;SDS011;30569;51.252;9.830;2023-02-28T01:27:40;4.00;;;2.20;;
44832;SDS011;30569;51.252;9.830;2023-02-28T01:30:07;4.37;;;2.40;;
44832;SDS011;30569;51.252;9.830;2023-02-28T01:32:33;7.63;;;2.57;;
44832;SDS011;30569;51.252;9.830;2023-02-28T01:34:59;5.30;;;2.50;;
44832;SDS011;30569;51.252;9.830;2023-02-28T01:37:25;4.50;;;2.30;;
44832;SDS011;30569;51.252;9.830;2023-02-28T01:39:50;4.53;;;2.50;;
44832;SDS011;30569;51.252;9.830;2023-02-28T01:42:16;5.00;;;2.30;;
44832;SDS011;30569;51.252;9.830;2023-02-28T01:44:55;4.07;;;2.20;;
44832;SDS011;30569;51.252;9.830;2023-02-28T01:47:29;5.10;;;2.30;;
44832;SDS011;30569;51.252;9.830;2023-02-28T01:50:02;4.37;;;2.30;;
44832;SDS011;30569;51.252;9.830;2023-02-28T01:52:32;4.13;;;2.50;;
44832;SDS011;30569;51.252;9.830;2023-02-28T01:54:59;5.80;;;2.20;;
44832;SDS011;30569;51.252;9.830;2023-02-28T01:57:31;5.40;;;2.90;;
44832;SDS011;30569;51.252;9.830;2023-02-28T02:00:16;4.23;;;2.20;;
44832;SDS011;30569;51.252;9.830;2023-02-28T02:02:47;3.87;;;2.27;;
44832;SDS011;30569;51.252;9.830;2023-02-28T02:05:19;3.57;;;2.20;;
44832;SDS011;30569;51.252;9.830;2023-02-28T02:07:47;5.20;;;2.40;;
44832;SDS011;30569;51.252;9.830;2023-02-28T02:10:16;4.33;;;2.33;;
44832;SDS011;30569;51.252;9.830;2023-02-28T02:12:51;4.43;;;2.30;;
44832;SDS011;30569;51.252;9.830;2023-02-28T02:15:46;4.87;;;2.53;;
44832;SDS011;30569;51.252;9.830;2023-02-28T02:23:33;15.20;;;6.77;;
44832;SDS011;30569;51.252;9.830;2023-02-28T02:32:03;5.63;;;2.60;;
44832;SDS011;30569;51.252;9.830;2023-02-28T02:34:43;4.57;;;2.37;;
44832;SDS011;30569;51.252;9.830;2023-02-28T02:39:57;5.60;;;2.40;;
44832;SDS011;30569;51.252;9.830;2023-02-28T02:42:45;6.33;;;2.60;;
44832;SDS011;30569;51.252;9.830;2023-02-28T02:45:47;5.80;;;2.30;;
44832;SDS011;30569;51.252;9.830;2023-02-28T02:48:21;4.57;;;2.50;;
44832;SDS011;30569;51.252;9.830;2023-02-28T02:50:53;6.27;;;2.20;;
44832;SDS011;30569;51.252;9.830;2023-02-28T02:53:22;5.00;;;2.53;;
44832;SDS011;30569;51.252;9.830;2023-02-28T02:55:52;5.40;;;2.33;;
44832;SDS011;30569;51.252;9.830;2023-02-28T02:58:20;5.07;;;2.83;;
44832;SDS011;30569;51.252;9.830;2023-02-28T03:00:51;5.50;;;2.57;;
44832;SDS011;30569;51.252;9.830;2023-02-28T03:03:20;3.60;;;2.00;;
44832;SDS011;30569;51.252;9.830;2023-02-28T03:05:53;4.60;;;2.33;;
44832;SDS011;30569;51.252;9.830;2023-02-28T03:08:20;4.10;;;2.13;;
44832;SDS011;30569;51.252;9.830;2023-02-28T03:10:48;3.93;;;2.30;;
44832;SDS011;30569;51.252;9.830;2023-02-28T03:23:42;5.20;;;2.53;;
44832;SDS011;30569;51.252;9.830;2023-02-28T03:26:13;4.53;;;2.40;;
44832;SDS011;30569;51.252;9.830;2023-02-28T03:31:30;4.30;;;2.25;;
44832;SDS011;30569;51.252;9.830;2023-02-28T03:36:45;6.23;;;2.50;;
44832;SDS011;30569;51.252;9.830;2023-02-28T03:39:19;4.60;;;2.47;;
44832;SDS011;30569;51.252;9.830;2023-02-28T03:41:52;4.53;;;2.38;;
44832;SDS011;30569;51.252;9.830;2023-02-28T03:44:29;4.33;;;2.40;;
44832;SDS011;30569;51.252;9.830;2023-02-28T03:49:54;3.80;;;2.00;;
44832;SDS011;30569;51.252;9.830;2023-02-28T03:52:25;5.13;;;2.30;;
44832;SDS011;30569;51.252;9.830;2023-02-28T03:54:54;4.03;;;2.10;;
44832;SDS011;30569;51.252;9.830;2023-02-28T03:59:56;9.23;;;4.47;;
44832;SDS011;30569;51.252;9.830;2023-02-28T04:02:30;4.13;;;2.40;;
44832;SDS011;30569;51.252;9.830;2023-02-28T04:04:56;4.13;;;2.23;;
44832;SDS011;30569;51.252;9.830;2023-02-28T04:07:22;5.47;;;2.13;;
44832;SDS011;30569;51.252;9.830;2023-02-28T04:09:48;6.93;;;2.87;;
44832;SDS011;30569;51.252;9.830;2023-02-28T04:12:14;5.20;;;2.30;;
44832;SDS011;30569;51.252;9.830;2023-02-28T04:14:39;9.10;;;2.43;;
44832;SDS011;30569;51.252;9.830;2023-02-28T04:17:05;4.00;;;2.40;;
44832;SDS011;30569;51.252;9.830;2023-02-28T04:19:31;5.43;;;2.20;;
44832;SDS011;30569;51.252;9.830;2023-02-28T04:21:57;3.97;;;2.33;;
44832;SDS011;30569;51.252;9.830;2023-02-28T04:24:24;4.20;;;2.20;;
44832;SDS011;30569;51.252;9.830;2023-02-28T04:26:52;4.13;;;2.30;;
44832;SDS011;30569;51.252;9.830;2023-02-28T04:29:24;4.90;;;2.50;;
44832;SDS011;30569;51.252;9.830;2023-02-28T04:31:51;4.57;;;2.30;;
44832;SDS011;30569;51.252;9.830;2023-02-28T04:34:18;5.67;;;2.40;;
44832;SDS011;30569;51.252;9.830;2023-02-28T04:36:44;5.50;;;2.90;;
44832;SDS011;30569;51.252;9.830;2023-02-28T04:39:11;5.97;;;2.50;;
44832;SDS011;30569;51.252;9.830;2023-02-28T04:41:37;7.80;;;2.50;;
44832;SDS011;30569;51.252;9.830;2023-02-28T04:44:03;5.00;;;2.67;;
44832;SDS011;30569;51.252;9.830;2023-02-28T04:46:28;5.80;;;2.30;;
44832;SDS011;30569;51.252;9.830;2023-02-28T04:48:55;3.90;;;2.30;;
44832;SDS011;30569;51.252;9.830;2023-02-28T04:51:21;5.17;;;2.33;;
44832;SDS011;30569;51.252;9.830;2023-02-28T04:53:47;9.50;;;3.23;;
44832;SDS011;30569;51.252;9.830;2023-02-28T04:56:13;4.17;;;2.30;;
44832;SDS011;30569;51.252;9.830;2023-02-28T04:58:40;6.40;;;2.37;;
44832;SDS011;30569;51.252;9.830;2023-02-28T05:01:13;6.70;;;2.27;;
44832;SDS011;30569;51.252;9.830;2023-02-28T05:03:45;4.73;;;2.60;;
44832;SDS011;30569;51.252;9.830;2023-02-28T05:06:11;3.97;;;2.37;;
44832;SDS011;30569;51.252;9.830;2023-02-28T05:08:38;4.03;;;2.03;;
44832;SDS011;30569;51.252;9.830;2023-02-28T05:11:05;5.07;;;2.20;;
44832;SDS011;30569;51.252;9.830;2023-02-28T05:13:36;4.53;;;2.77;;
44832;SDS011;30569;51.252;9.830;2023-02-28T05:16:02;7.37;;;2.60;;
44832;SDS011;30569;51.252;9.830;2023-02-28T05:18:28;5.47;;;2.83;;
44832;SDS011;30569;51.252;9.830;2023-02-28T05:20:53;7.17;;;2.77;;
44832;SDS011;30569;51.252;9.830;2023-02-28T05:23:19;6.10;;;2.50;;
44832;SDS011;30569;51.252;9.830;2023-02-28T05:25:45;5.63;;;2.30;;
44832;SDS011;30569;51.252;9.830;2023-02-28T05:28:11;5.40;;;2.63;;
44832;SDS011;30569;51.252;9.830;2023-02-28T05:30:36;5.27;;;2.70;;
44832;SDS011;30569;51.252;9.830;2023-02-28T05:33:02;4.43;;;2.60;;
44832;SDS011;30569;51.252;9.830;2023-02-28T05:35:28;5.43;;;2.80;;
44832;SDS011;30569;51.252;9.830;2023-02-28T05:37:53;6.13;;;2.50;;
44832;SDS011;30569;51.252;9.830;2023-02-28T05:40:19;4.57;;;2.90;;
44832;SDS011;30569;51.252;9.830;2023-02-28T05:42:45;4.90;;;2.67;;
44832;SDS011;30569;51.252;9.830;2023-02-28T05:45:11;6.40;;;3.10;;
44832;SDS011;30569;51.252;9.830;2023-02-28T05:47:37;5.03;;;2.50;;
44832;SDS011;30569;51.252;9.830;2023-02-28T05:50:03;4.83;;;2.90;;
44832;SDS011;30569;51.252;9.830;2023-02-28T05:52:29;5.17;;;2.60;;
44832;SDS011;30569;51.252;9.830;2023-02-28T05:54:55;5.33;;;2.77;;
44832;SDS011;30569;51.252;9.830;2023-02-28T05:57:21;4.80;;;2.70;;
44832;SDS011;30569;51.252;9.830;2023-02-28T05:59:47;6.27;;;3.00;;
44832;SDS011;30569;51.252;9.830;2023-02-28T06:02:14;5.37;;;3.00;;
44832;SDS011;30569;51.252;9.830;2023-02-28T06:04:41;5.70;;;3.03;;
44832;SDS011;30569;51.252;9.830;2023-02-28T06:07:08;5.03;;;2.70;;
44832;SDS011;30569;51.252;9.830;2023-02-28T06:09:34;8.63;;;3.17;;
44832;SDS011;30569;51.252;9.830;2023-02-28T06:12:01;4.60;;;2.53;;
44832;SDS011;30569;51.252;9.830;2023-02-28T06:14:32;5.03;;;2.83;;
44832;SDS011;30569;51.252;9.830;2023-02-28T06:16:59;8.13;;;2.87;;
44832;SDS011;30569;51.252;9.830;2023-02-28T06:19:25;8.10;;;2.70;;
44832;SDS011;30569;51.252;9.830;2023-02-28T06:21:51;4.57;;;2.53;;
44832;SDS011;30569;51.252;9.830;2023-02-28T06:24:18;5.87;;;3.57;;
44832;SDS011;30569;51.252;9.830;2023-02-28T06:26:44;6.37;;;2.80;;
44832;SDS011;30569;51.252;9.830;2023-02-28T06:29:10;4.63;;;2.73;;
44832;SDS011;30569;51.252;9.830;2023-02-28T06:31:36;4.37;;;2.43;;
44832;SDS011;30569;51.252;9.830;2023-02-28T06:34:03;6.40;;;2.73;;
44832;SDS011;30569;51.252;9.830;2023-02-28T06:36:29;5.10;;;2.50;;
44832;SDS011;30569;51.252;9.830;2023-02-28T06:38:55;4.93;;;2.90;;
44832;SDS011;30569;51.252;9.830;2023-02-28T06:41:23;4.87;;;2.53;;
44832;SDS011;30569;51.252;9.830;2023-02-28T06:43:49;6.50;;;3.20;;
44832;SDS011;30569;51.252;9.830;2023-02-28T06:46:15;5.20;;;2.93;;
44832;SDS011;30569;51.252;9.830;2023-02-28T06:48:42;5.00;;;2.90;;
44832;SDS011;30569;51.252;9.830;2023-02-28T06:51:10;4.00;;;2.27;;
44832;SDS011;30569;51.252;9.830;2023-02-28T06:53:38;8.10;;;2.97;;
44832;SDS011;30569;51.252;9.830;2023-02-28T06:56:05;5.60;;;3.00;;
44832;SDS011;30569;51.252;9.830;2023-02-28T06:58:38;5.03;;;3.35;;
44832;SDS011;30569;51.252;9.830;2023-02-28T07:01:04;9.87;;;5.07;;
44832;SDS011;30569;51.252;9.830;2023-02-28T07:03:30;5.97;;;2.70;;
44832;SDS011;30569;51.252;9.830;2023-02-28T07:05:56;4.47;;;2.60;;
44832;SDS011;30569;51.252;9.830;2023-02-28T07:08:23;8.97;;;2.90;;
44832;SDS011;30569;51.252;9.830;2023-02-28T07:10:55;4.83;;;2.87;;
44832;SDS011;30569;51.252;9.830;2023-02-28T07:13:21;5.70;;;2.90;;
44832;SDS011;30569;51.252;9.830;2023-02-28T07:15:57;4.73;;;2.63;;
44832;SDS011;30569;51.252;9.830;2023-02-28T07:18:24;6.30;;;2.83;;
44832;SDS011;30569;51.252;9.830;2023-02-28T07:20:50;5.37;;;2.80;;
44832;SDS011;30569;51.252;9.830;2023-02-28T07:23:16;4.47;;;2.70;;
44832;SDS011;30569;51.252;9.830;2023-02-28T07:25:41;5.00;;;2.83;;
44832;SDS011;30569;51.252;9.830;2023-02-28T07:28:07;5.00;;;2.80;;
44832;SDS011;30569;51.252;9.830;2023-02-28T07:30:33;5.50;;;2.57;;
44832;SDS011;30569;51.252;9.830;2023-02-28T07:32:58;5.97;;;2.80;;
44832;SDS011;30569;51.252;9.830;2023-02-28T07:35:24;6.03;;;2.90;;
44832;SDS011;30569;51.252;9.830;2023-02-28T07:37:50;5.63;;;2.97;;
44832;SDS011;30569;51.252;9.830;2023-02-28T07:40:16;6.80;;;3.40;;
44832;SDS011;30569;51.252;9.830;2023-02-28T07:42:42;6.17;;;2.80;;
44832;SDS011;30569;51.252;9.830;2023-02-28T07:45:09;6.80;;;2.70;;
44832;SDS011;30569;51.252;9.830;2023-02-28T07:47:36;6.23;;;2.90;;
44832;SDS011;30569;51.252;9.830;2023-02-28T07:50:06;5.70;;;2.80;;
44832;SDS011;30569;51.252;9.830;2023-02-28T07:52:38;6.27;;;3.33;;
44832;SDS011;30569;51.252;9.830;2023-02-28T07:55:05;5.77;;;2.87;;
44832;SDS011;30569;51.252;9.830;2023-02-28T07:57:31;5.37;;;2.77;;
44832;SDS011;30569;51.252;9.830;2023-02-28T07:59:57;6.13;;;3.40;;
44832;SDS011;30569;51.252;9.830;2023-02-28T08:02:22;6.73;;;3.60;;
44832;SDS011;30569;51.252;9.830;2023-02-28T08:04:48;6.60;;;2.83;;
44832;SDS011;30569;51.252;9.830;2023-02-28T08:07:14;8.63;;;5.10;;
44832;SDS011;30569;51.252;9.830;2023-02-28T08:09:41;5.13;;;3.07;;
44832;SDS011;30569;51.252;9.830;2023-02-28T08:12:07;6.17;;;3.20;;
44832;SDS011;30569;51.252;9.830;2023-02-28T08:14:34;7.20;;;3.10;;
44832;SDS011;30569;51.252;9.830;2023-02-28T08:16:59;6.43;;;3.40;;
44832;SDS011;30569;51.252;9.830;2023-02-28T08:19:26;5.63;;;3.33;;
44832;SDS011;30569;51.252;9.830;2023-02-28T08:21:52;6.33;;;3.67;;
44832;SDS011;30569;51.252;9.830;2023-02-28T08:24:17;6.33;;;3.50;;
44832;SDS011;30569;51.252;9.830;2023-02-28T08:26:43;6.47;;;3.67;;
44832;SDS011;30569;51.252;9.830;2023-02-28T08:29:09;5.87;;;3.30;;
44832;SDS011;30569;51.252;9.830;2023-02-28T08:31:34;5.50;;;3.47;;
44832;SDS011;30569;51.252;9.830;2023-02-28T08:34:11;6.80;;;3.83;;
44832;SDS011;30569;51.252;9.830;2023-02-28T08:36:38;6.30;;;3.87;;
44832;SDS011;30569;51.252;9.830;2023-02-28T08:39:04;6.17;;;3.43;;
44832;SDS011;30569;51.252;9.830;2023-02-28T08:41:31;4.90;;;3.10;;
44832;SDS011;30569;51.252;9.830;2023-02-28T08:43:56;6.07;;;3.40;;
44832;SDS011;30569;51.252;9.830;2023-02-28T08:46:22;6.97;;;3.53;;
44832;SDS011;30569;51.252;9.830;2023-02-28T08:48:51;6.57;;;3.47;;
44832;SDS011;30569;51.252;9.830;2023-02-28T08:51:18;6.07;;;3.60;;
44832;SDS011;30569;51.252;9.830;2023-02-28T08:53:50;9.63;;;4.07;;
44832;SDS011;30569;51.252;9.830;2023-02-28T08:56:17;5.57;;;3.40;;
44832;SDS011;30569;51.252;9.830;2023-02-28T08:58:43;8.70;;;4.60;;
44832;SDS011;30569;51.252;9.830;2023-02-28T09:01:10;7.03;;;3.10;;
44832;SDS011;30569;51.252;9.830;2023-02-28T09:03:42;8.65;;;4.72;;
44832;SDS011;30569;51.252;9.830;2023-02-28T09:06:10;6.93;;;4.03;;
44832;SDS011;30569;51.252;9.830;2023-02-28T09:08:36;9.60;;;3.50;;
44832;SDS011;30569;51.252;9.830;2023-02-28T09:11:02;5.17;;;3.20;;
44832;SDS011;30569;51.252;9.830;2023-02-28T09:13:29;7.03;;;3.30;;
44832;SDS011;30569;51.252;9.830;2023-02-28T09:15:57;5.73;;;3.10;;
44832;SDS011;30569;51.252;9.830;2023-02-28T09:18:23;6.33;;;3.30;;
44832;SDS011;30569;51.252;9.830;2023-02-28T09:20:49;8.47;;;5.30;;
44832;SDS011;30569;51.252;9.830;2023-02-28T09:23:15;5.23;;;2.93;;
44832;SDS011;30569;51.252;9.830;2023-02-28T09:25:51;6.20;;;3.03;;
44832;SDS011;30569;51.252;9.830;2023-02-28T09:28:19;6.33;;;4.10;;
44832;SDS011;30569;51.252;9.830;2023-02-28T09:30:46;5.43;;;3.07;;
44832;SDS011;30569;51.252;9.830;2023-02-28T09:33:13;8.27;;;3.30;;
44832;SDS011;30569;51.252;9.830;2023-02-28T09:35:39;5.40;;;2.70;;
44832;SDS011;30569;51.252;9.830;2023-02-28T09:38:05;6.30;;;2.80;;
44832;SDS011;30569;51.252;9.830;2023-02-28T09:40:34;4.97;;;2.67;;
44832;SDS011;30569;51.252;9.830;2023-02-28T09:43:02;5.10;;;2.80;;
44832;SDS011;30569;51.252;9.830;2023-02-28T09:45:39;6.17;;;2.90;;
44832;SDS011;30569;51.252;9.830;2023-02-28T09:48:12;5.77;;;3.20;;
44832;SDS011;30569;51.252;9.830;2023-02-28T09:51:27;5.73;;;2.87;;
44832;SDS011;30569;51.252;9.830;2023-02-28T09:53:54;5.63;;;2.80;;
44832;SDS011;30569;51.252;9.830;2023-02-28T10:01:39;5.68;;;2.50;;
44832;SDS011;30569;51.252;9.830;2023-02-28T10:07:12;6.70;;;2.70;;
44832;SDS011;30569;51.252;9.830;2023-02-28T10:09:47;5.25;;;2.72;;
44832;SDS011;30569;51.252;9.830;2023-02-28T10:12:17;5.22;;;2.70;;
44832;SDS011;30569;51.252;9.830;2023-02-28T10:14:45;5.20;;;3.20;;
44832;SDS011;30569;51.252;9.830;2023-02-28T10:17:14;5.38;;;2.72;;
44832;SDS011;30569;51.252;9.830;2023-02-28T10:25:41;5.85;;;2.80;;
44832;SDS011;30569;51.252;9.830;2023-02-28T10:28:14;5.80;;;3.17;;
44832;SDS011;30569;51.252;9.830;2023-02-28T10:30:45;6.05;;;2.90;;
44832;SDS011;30569;51.252;9.830;2023-02-28T10:33:15;6.43;;;3.60;;
44832;SDS011;30569;51.252;9.830;2023-02-28T10:35:53;5.72;;;3.00;;
44832;SDS011;30569;51.252;9.830;2023-02-28T10:38:22;8.23;;;3.10;;
44832;SDS011;30569;51.252;9.830;2023-02-28T10:40:50;7.90;;;3.58;;
44832;SDS011;30569;51.252;9.830;2023-02-28T10:45:55;6.82;;;3.50;;
44832;SDS011;30569;51.252;9.830;2023-02-28T10:48:29;5.33;;;3.13;;
44832;SDS011;30569;51.252;9.830;2023-02-28T10:51:01;5.25;;;3.25;;
44832;SDS011;30569;51.252;9.830;2023-02-28T10:54:11;6.75;;;3.30;;
44832;SDS011;30569;51.252;9.830;2023-02-28T10:56:20;7.97;;;3.53;;
44832;SDS011;30569;51.252;9.830;2023-02-28T10:59:00;5.93;;;3.50;;
44832;SDS011;30569;51.252;9.830;2023-02-28T11:01:45;5.00;;;3.07;;
44832;SDS011;30569;51.252;9.830;2023-02-28T11:04:31;5.90;;;3.00;;
44832;SDS011;30569;51.252;9.830;2023-02-28T11:07:05;6.67;;;3.80;;
44832;SDS011;30569;51.252;9.830;2023-02-28T11:09:41;6.60;;;3.17;;
44832;SDS011;30569;51.252;9.830;2023-02-28T11:12:27;6.13;;;3.20;;
44832;SDS011;30569;51.252;9.830;2023-02-28T11:15:04;7.07;;;3.40;;
44832;SDS011;30569;51.252;9.830;2023-02-28T11:17:43;5.40;;;3.30;;
44832;SDS011;30569;51.252;9.830;2023-02-28T11:20:10;7.57;;;3.37;;
44832;SDS011;30569;51.252;9.830;2023-02-28T11:22:45;6.07;;;3.67;;
44832;SDS011;30569;51.252;9.830;2023-02-28T11:25:32;5.37;;;3.07;;
44832;SDS011;30569;51.252;9.830;2023-02-28T11:28:01;5.63;;;3.77;;
44832;SDS011;30569;51.252;9.830;2023-02-28T11:30:32;6.10;;;3.60;;
44832;SDS011;30569;51.252;9.830;2023-02-28T11:33:00;8.80;;;3.47;;
44832;SDS011;30569;51.252;9.830;2023-02-28T11:35:43;6.88;;;4.05;;
44832;SDS011;30569;51.252;9.830;2023-02-28T11:38:09;6.40;;;3.80;;
44832;SDS011;30569;51.252;9.830;2023-02-28T11:43:26;7.27;;;3.90;;
44832;SDS011;30569;51.252;9.830;2023-02-28T11:46:08;6.33;;;3.43;;
44832;SDS011;30569;51.252;9.830;2023-02-28T11:49:04;6.23;;;3.90;;
44832;SDS011;30569;51.252;9.830;2023-02-28T11:55:11;8.15;;;4.03;;
44832;SDS011;30569;51.252;9.830;2023-02-28T12:05:42;8.67;;;4.00;;
44832;SDS011;30569;51.252;9.830;2023-02-28T12:16:29;5.77;;;3.20;;
44832;SDS011;30569;51.252;9.830;2023-02-28T12:19:15;5.67;;;3.43;;
44832;SDS011;30569;51.252;9.830;2023-02-28T12:24:31;7.60;;;3.80;;
44832;SDS011;30569;51.252;9.830;2023-02-28T12:27:29;7.87;;;3.87;;
44832;SDS011;30569;51.252;9.830;2023-02-28T12:30:03;6.67;;;3.67;;
44832;SDS011;30569;51.252;9.830;2023-02-28T12:32:41;7.30;;;3.47;;
44832;SDS011;30569;51.252;9.830;2023-02-28T12:37:40;6.33;;;3.37;;
44832;SDS011;30569;51.252;9.830;2023-02-28T12:40:12;6.57;;;3.87;;
44832;SDS011;30569;51.252;9.830;2023-02-28T12:42:42;6.27;;;4.00;;
44832;SDS011;30569;51.252;9.830;2023-02-28T12:45:23;6.47;;;3.57;;
44832;SDS011;30569;51.252;9.830;2023-02-28T12:47:54;7.30;;;4.13;;
44832;SDS011;30569;51.252;9.830;2023-02-28T12:50:32;6.63;;;3.47;;
44832;SDS011;30569;51.252;9.830;2023-02-28T12:58:24;8.17;;;4.00;;
44832;SDS011;30569;51.252;9.830;2023-02-28T13:06:32;6.37;;;3.80;;
44832;SDS011;30569;51.252;9.830;2023-02-28T13:09:14;6.63;;;3.77;;
44832;SDS011;30569;51.252;9.830;2023-02-28T13:14:29;7.80;;;3.60;;
44832;SDS011;30569;51.252;9.830;2023-02-28T13:19:39;8.73;;;4.03;;
44832;SDS011;30569;51.252;9.830;2023-02-28T13:22:51;6.95;;;3.92;;
44832;SDS011;30569;51.252;9.830;2023-02-28T13:24:59;8.73;;;4.17;;
44832;SDS011;30569;51.252;9.830;2023-02-28T13:27:36;8.57;;;3.70;;
44832;SDS011;30569;51.252;9.830;2023-02-28T13:36:00;8.37;;;3.67;;
44832;SDS011;30569;51.252;9.830;2023-02-28T13:38:36;8.47;;;4.27;;
44832;SDS011;30569;51.252;9.830;2023-02-28T13:49:28;7.33;;;3.80;;
44832;SDS011;30569;51.252;9.830;2023-02-28T14:03:45;8.50;;;4.50;;
44832;SDS011;30569;51.252;9.830;2023-02-28T14:06:32;7.07;;;4.27;;
44832;SDS011;30569;51.252;9.830;2023-02-28T14:09:02;8.77;;;4.10;;
44832;SDS011;30569;51.252;9.830;2023-02-28T14:11:41;8.60;;;4.40;;
44832;SDS011;30569;51.252;9.830;2023-02-28T14:14:09;7.23;;;3.80;;
44832;SDS011;30569;51.252;9.830;2023-02-28T14:16:55;7.67;;;4.80;;
44832;SDS011;30569;51.252;9.830;2023-02-28T14:19:26;6.80;;;4.00;;
44832;SDS011;30569;51.252;9.830;2023-02-28T14:24:49;6.67;;;4.20;;
44832;SDS011;30569;51.252;9.830;2023-02-28T14:38:30;6.07;;;3.77;;
44832;SDS011;30569;51.252;9.830;2023-02-28T14:41:00;7.10;;;4.00;;
44832;SDS011;30569;51.252;9.830;2023-02-28T14:43:29;7.73;;;4.30;;
44832;SDS011;30569;51.252;9.830;2023-02-28T14:45:55;7.70;;;4.30;;
44832;SDS011;30569;51.252;9.830;2023-02-28T14:48:24;7.63;;;4.57;;
44832;SDS011;30569;51.252;9.830;2023-02-28T14:50:51;8.33;;;4.63;;
44832;SDS011;30569;51.252;9.830;2023-02-28T14:53:20;7.63;;;4.47;;
44832;SDS011;30569;51.252;9.830;2023-02-28T14:55:49;8.90;;;4.60;;
44832;SDS011;30569;51.252;9.830;2023-02-28T14:58:38;7.87;;;4.67;;
44832;SDS011;30569;51.252;9.830;2023-02-28T15:01:03;9.87;;;4.40;;
44832;SDS011;30569;51.252;9.830;2023-02-28T15:03:34;8.23;;;5.07;;
44832;SDS011;30569;51.252;9.830;2023-02-28T15:06:06;8.90;;;4.60;;
44832;SDS011;30569;51.252;9.830;2023-02-28T15:08:42;8.83;;;4.73;;
44832;SDS011;30569;51.252;9.830;2023-02-28T15:11:18;8.07;;;4.47;;
44832;SDS011;30569;51.252;9.830;2023-02-28T15:13:51;7.97;;;5.37;;
44832;SDS011;30569;51.252;9.830;2023-02-28T15:16:20;10.70;;;5.37;;
44832;SDS011;30569;51.252;9.830;2023-02-28T15:18:59;9.43;;;5.43;;
44832;SDS011;30569;51.252;9.830;2023-02-28T15:21:34;8.50;;;4.80;;
44832;SDS011;30569;51.252;9.830;2023-02-28T15:26:59;8.82;;;5.38;;
44832;SDS011;30569;51.252;9.830;2023-02-28T15:29:28;9.53;;;5.13;;
44832;SDS011;30569;51.252;9.830;2023-02-28T15:32:07;8.80;;;5.00;;
44832;SDS011;30569;51.252;9.830;2023-02-28T15:34:57;9.83;;;5.30;;
44832;SDS011;30569;51.252;9.830;2023-02-28T15:39:55;8.87;;;5.20;;
44832;SDS011;30569;51.252;9.830;2023-02-28T15:42:26;8.07;;;4.97;;
44832;SDS011;30569;51.252;9.830;2023-02-28T15:44:53;11.27;;;5.57;;
44832;SDS011;30569;51.252;9.830;2023-02-28T15:47:26;11.30;;;5.00;;
44832;SDS011;30569;51.252;9.830;2023-02-28T15:49:54;10.10;;;5.70;;
44832;SDS011;30569;51.252;9.830;2023-02-28T15:52:42;9.20;;;5.33;;
44832;SDS011;30569;51.252;9.830;2023-02-28T15:57:44;11.27;;;5.93;;
44832;SDS011;30569;51.252;9.830;2023-02-28T16:00:12;11.20;;;6.90;;
44832;SDS011;30569;51.252;9.830;2023-02-28T16:02:40;8.20;;;5.10;;
44832;SDS011;30569;51.252;9.830;2023-02-28T16:07:32;11.50;;;5.47;;
44832;SDS011;30569;51.252;9.830;2023-02-28T16:09:59;9.67;;;5.27;;
44832;SDS011;30569;51.252;9.830;2023-02-28T16:12:26;10.23;;;5.17;;
44832;SDS011;30569;51.252;9.830;2023-02-28T16:14:57;9.80;;;6.30;;
44832;SDS011;30569;51.252;9.830;2023-02-28T16:17:28;9.07;;;5.90;;
44832;SDS011;30569;51.252;9.830;2023-02-28T16:19:56;10.63;;;5.27;;
44832;SDS011;30569;51.252;9.830;2023-02-28T16:22:23;10.53;;;5.87;;
44832;SDS011;30569;51.252;9.830;2023-02-28T16:24:49;8.50;;;5.17;;
44832;SDS011;30569;51.252;9.830;2023-02-28T16:27:36;10.63;;;5.80;;
44832;SDS011;30569;51.252;9.830;2023-02-28T16:30:02;8.70;;;5.30;;
44832;SDS011;30569;51.252;9.830;2023-02-28T16:32:29;7.73;;;5.10;;
44832;SDS011;30569;51.252;9.830;2023-02-28T16:34:57;10.17;;;5.07;;
44832;SDS011;30569;51.252;9.830;2023-02-28T16:37:22;9.03;;;5.07;;
44832;SDS011;30569;51.252;9.830;2023-02-28T16:39:48;8.80;;;5.67;;
44832;SDS011;30569;51.252;9.830;2023-02-28T16:42:18;8.73;;;5.27;;
44832;SDS011;30569;51.252;9.830;2023-02-28T16:44:47;9.63;;;5.20;;
44832;SDS011;30569;51.252;9.830;2023-02-28T16:47:13;9.20;;;5.37;;
44832;SDS011;30569;51.252;9.830;2023-02-28T16:49:40;9.60;;;5.50;;
44832;SDS011;30569;51.252;9.830;2023-02-28T16:52:08;10.30;;;5.23;;
44832;SDS011;30569;51.252;9.830;2023-02-28T16:54:34;12.03;;;5.50;;
44832;SDS011;30569;51.252;9.830;2023-02-28T16:57:01;7.23;;;4.57;;
44832;SDS011;30569;51.252;9.830;2023-02-28T16:59:27;7.70;;;5.00;;
44832;SDS011;30569;51.252;9.830;2023-02-28T17:01:54;8.87;;;4.80;;
44832;SDS011;30569;51.252;9.830;2023-02-28T17:04:22;9.47;;;5.20;;
44832;SDS011;30569;51.252;9.830;2023-02-28T17:06:48;8.47;;;5.60;;
44832;SDS011;30569;51.252;9.830;2023-02-28T17:09:18;9.60;;;5.63;;
44832;SDS011;30569;51.252;9.830;2023-02-28T17:11:45;8.83;;;5.23;;
44832;SDS011;30569;51.252;9.830;2023-02-28T17:14:12;10.30;;;4.90;;
44832;SDS011;30569;51.252;9.830;2023-02-28T17:16:38;9.27;;;4.90;;
44832;SDS011;30569;51.252;9.830;2023-02-28T17:19:05;8.23;;;5.00;;
44832;SDS011;30569;51.252;9.830;2023-02-28T17:21:34;10.63;;;5.60;;
44832;SDS011;30569;51.252;9.830;2023-02-28T17:24:02;7.50;;;5.33;;
44832;SDS011;30569;51.252;9.830;2023-02-28T17:26:28;9.77;;;5.47;;
44832;SDS011;30569;51.252;9.830;2023-02-28T17:28:57;10.60;;;5.30;;